Portada
METAR-TAF:

METAR-TAF

Aeroports :

Resolute, Nunavut, Canadà

latitud: 74-43N, longitud: 094-59W, altitud: 67 m

Observació

L'informe es va fer fa 52 minuts, a les 01:00 UTC
Vent 13 kt del Nord-Oest
Temperatura -23°C
Humitat 70%
Pressió 1013 hPa
Visibilitat: 24.1 km
Escasses núvols a una alçada de 4000 ft
Escasses núvols a una alçada de 25000 ft
cristalls de gel

METAR: CYRB 230100Z 31013KT 15SM IC FEW040 FEW250 M23/M27 A2991 RMK SC1CI1 SC TR CI TR SLP141

Hora: 20:52 (01:52 UTC)

Pronòstic

L'informe es va fer fa 2 hores i 14 minuts, a les 23:38 UTC
Pronòstic vàlid del 23 a les 00 UTC al 23 a les 24 UTC
Vent 15 kt del Nord-Oest
Visibilitat: 10 km
Núvols disperses a una alçada de 5000 ft
cristalls de gel
Temporalment
l' 23 a les 00 UTC al 23 a les 24 UTC
Vent 15 kt del Nord-Oest amb ràfegues de 25 kt
Visibilitat: 8.0 km
cristalls de gel, torb alta de neu

TAF: CYRB 222338Z 2300/2324 32015KT P6SM IC SCT050 TEMPO 2300/2324 32015G25KT 5SM IC BLSN RMK NXT FCST BY 230600Z

Observacions i pronòstics meteorològics de més de 4000 aeroports (METAR i TAF).

Les estacions disponibles són els punts grocs i vermells al mapa.

Posi el ratolí al punt desitjat per veure el nom de l'estació.

Feu clic per veure les observacions i els pronòstics meteorològics.

Per canviar el mapa: feu clic els botons verds amb una creu de color negre per apropar; al botó verd amb un guió per allunyar la imatge; o en les fletxes verdes per a mapes adjacents.


METAR-TAF: